Arlington, OR (97812)

2:51 AM PDT on April 25, 2017 (GMT -0700)
Arlington Airport | | Change Station

Elev 890 ft 45.72 °N, 120.18 °W | Updated 25 seconds ago

Overcast
Overcast
47.1 °F
Feels Like 42 °F
N
10.0
Wind Variable Wind from West
Gusts 10.0 mph

Today
High -- | Low -- °F
--% Chance of Precip.
Yesterday
High -- | Low -- °F
Precip. -- in
Pressure 29.87 in
Visibility 10.0 miles
Clouds Few 4200 ft
Overcast 5000 ft
Windchill 42 °F
Dew Point 41 °F
Humidity 80%
Rainfall 0.00 in
Snow Depth Not available.
5:57 AM 8:00 PM
Waning Crescent, 2% visible
METAR KHRI 250853Z AUTO 23012G18KT 10SM FEW042 OVC050 09/07 A2987 RMK AO2 RAB01E11 SLP114 P0000 60000 T00890067 51018
Pressure 29.87 in
Visibility 10.0 miles
Clouds Few 4200 ft
Overcast 5000 ft
Windchill 42 °F
Dew Point 41 °F
Humidity 80%
Rainfall 0.00 in
Snow Depth Not available.
5:57 AM 8:00 PM
Waning Crescent, 2% visible
METAR KHRI 250853Z AUTO 23012G18KT 10SM FEW042 OVC050 09/07 A2987 RMK AO2 RAB01E11 SLP114 P0000 60000 T00890067 51018

Get Severe Weather Alerts

Thanks for signing up!

Be on the lookout for a verification email in your inbox.

You'll start receiving the daily forecast at 8 AM.

×

10-Day Weather Forecast

Almanac

Astronomy

Apr. 25, 2017 Rise Set
Actual Time
Civil Twilight
Nautical Twilight
Astronomical Twilight
Moon
Length of Visible Light
Length of Day
Tomorrow will be .
, % of the Moon is Illuminated

Today's Extremes

State Highs State Lows

Community

WunderPhotos

WunderBlog® & News

Nearby

Air Quality

  Air Quality AQ Index Pollutant
Not available.

Snow Depth

Station Depth Elevation

Earthquake Activity

City Distance Mag. Time & Date
Minimum magnitude displayed is 2.5.

Coastal Water Temperatures

Place Temperature

Stations

Nearby Weather Stations

Station Location Temp. Windchill Dew Point Humidity Wind Precip. Elev Updated Type
                   

Watches & Warnings

There are currently no watches in effect.